Pittsville, MD

2:41 AM EDT on March 30, 2015 (GMT -0400)
RAWS POWELLVILLE MD US | | Change Station
CLOSE
Current Station
Personal Weather Station
Location: Powellville, MD
Elevation: 53 ft
Nearby Weather Stations

Elev 53 ft 38.36 °N, 75.43 °W | Updated 6 days ago

Cloudy
Cloudy
36 °F
Feels Like 29 °F
N
8
Wind Variable Wind from South
Gusts mph

Today
High -- | Low -- °F
--% Chance of Precip.
Yesterday
High -- | Low -- °F
Precip. -- in
6:50 AM 7:22 PM
Waxing Gibbous, 77% visible
Pressure 30.15 in
Visibility 10.0 miles
Clouds Clear
Windchill 29 °F
Dew Point 23 °F
Humidity 58%
Rainfall in
Snow Depth Not available.
UV 0 out of 12
Pollen 7.60 out of 12
Air Quality Not available.
Flu Activity Not available.
METAR KSBY 300554Z AUTO 17007KT 10SM CLR 01/M06 A3014 RMK AO2 SLP210 T00061056 10011 21017 58025 $

More Conditions Fewer Conditions

Pressure 30.15 in
Visibility 10.0 miles
Clouds Clear
Windchill 29 °F
Dew Point 23 °F
Humidity 58%
Rainfall in
Snow Depth Not available.
UV 0 out of 12
Pollen 7.60 out of 12
Air Quality Not available.
Flu Activity Not available.
METAR KSBY 300554Z AUTO 17007KT 10SM CLR 01/M06 A3014 RMK AO2 SLP210 T00061056 10011 21017 58025 $

More Conditions Fewer Conditions

10-Day Weather Forecast

Almanac

Astronomy

Mar. 30, 2015 Rise Set
Actual Time
Civil Twilight
Nautical Twilight
Astronomical Twilight
Moon
Length of Visible Light
Length of Day
Tomorrow will be .
, % of the Moon is Illuminated

Today's Extremes

State Highs State Lows

Community

WunderPhotos

Upload Photos

1,809,439 photos uploaded!

WunderBlogs® & News

Nearby

Air Quality

  Air Quality AQ Index Pollutant
Not available.

Snow Depth

Station Depth Elevation

Earthquake Activity

City Distance Mag. Time & Date
Minimum magnitude displayed is 2.5.

Coastal Water Temperatures

Place Temperature

Stations

Nearby Weather Stations

Station Location Temp. Windchill Dew Point Humidity Wind Precip. Elev Updated Type